sensor_id;sensor_type;location;lat;lon;timestamp;P1;durP1;ratioP1;P2;durP2;ratioP2
21825;SDS011;11075;47.944;11.776;2023-03-31T00:02:21;15.57;;;6.80;;
21825;SDS011;11075;47.944;11.776;2023-03-31T00:04:48;15.73;;;6.97;;
21825;SDS011;11075;47.944;11.776;2023-03-31T00:07:19;10.83;;;7.40;;
21825;SDS011;11075;47.944;11.776;2023-03-31T00:09:50;12.00;;;7.10;;
21825;SDS011;11075;47.944;11.776;2023-03-31T00:12:35;11.87;;;6.37;;
21825;SDS011;11075;47.944;11.776;2023-03-31T00:15:02;10.80;;;6.93;;
21825;SDS011;11075;47.944;11.776;2023-03-31T00:17:29;9.73;;;7.10;;
21825;SDS011;11075;47.944;11.776;2023-03-31T00:19:59;12.83;;;7.27;;
21825;SDS011;11075;47.944;11.776;2023-03-31T00:22:30;11.80;;;6.03;;
21825;SDS011;11075;47.944;11.776;2023-03-31T00:24:57;9.10;;;6.70;;
21825;SDS011;11075;47.944;11.776;2023-03-31T00:27:24;10.50;;;7.60;;
21825;SDS011;11075;47.944;11.776;2023-03-31T00:29:51;9.07;;;6.93;;
21825;SDS011;11075;47.944;11.776;2023-03-31T00:32:18;11.93;;;6.47;;
21825;SDS011;11075;47.944;11.776;2023-03-31T00:37:13;10.50;;;7.27;;
21825;SDS011;11075;47.944;11.776;2023-03-31T00:39:41;9.37;;;7.00;;
21825;SDS011;11075;47.944;11.776;2023-03-31T00:42:11;15.60;;;7.60;;
21825;SDS011;11075;47.944;11.776;2023-03-31T00:45:07;11.17;;;6.83;;
21825;SDS011;11075;47.944;11.776;2023-03-31T00:47:41;10.57;;;7.10;;
21825;SDS011;11075;47.944;11.776;2023-03-31T00:50:15;13.13;;;7.63;;
21825;SDS011;11075;47.944;11.776;2023-03-31T00:52:50;15.33;;;8.10;;
21825;SDS011;11075;47.944;11.776;2023-03-31T00:55:23;13.37;;;8.23;;
21825;SDS011;11075;47.944;11.776;2023-03-31T00:57:55;11.73;;;8.27;;
21825;SDS011;11075;47.944;11.776;2023-03-31T01:00:23;17.97;;;9.23;;
21825;SDS011;11075;47.944;11.776;2023-03-31T01:02:52;10.73;;;6.93;;
21825;SDS011;11075;47.944;11.776;2023-03-31T01:08:13;39.87;;;25.40;;
21825;SDS011;11075;47.944;11.776;2023-03-31T01:10:42;18.97;;;9.30;;
21825;SDS011;11075;47.944;11.776;2023-03-31T01:13:13;13.63;;;9.03;;
21825;SDS011;11075;47.944;11.776;2023-03-31T01:15:42;13.53;;;8.57;;
21825;SDS011;11075;47.944;11.776;2023-03-31T01:18:09;18.90;;;8.77;;
21825;SDS011;11075;47.944;11.776;2023-03-31T01:24:07;18.20;;;8.97;;
21825;SDS011;11075;47.944;11.776;2023-03-31T01:46:30;18.77;;;10.27;;
21825;SDS011;11075;47.944;11.776;2023-03-31T01:49:06;14.53;;;9.30;;
21825;SDS011;11075;47.944;11.776;2023-03-31T01:54:38;14.40;;;8.93;;
21825;SDS011;11075;47.944;11.776;2023-03-31T01:57:12;15.47;;;8.70;;
21825;SDS011;11075;47.944;11.776;2023-03-31T02:02:48;13.57;;;8.73;;
21825;SDS011;11075;47.944;11.776;2023-03-31T02:05:26;15.43;;;9.90;;
21825;SDS011;11075;47.944;11.776;2023-03-31T02:08:00;16.13;;;9.93;;
21825;SDS011;11075;47.944;11.776;2023-03-31T02:10:39;14.13;;;9.07;;
21825;SDS011;11075;47.944;11.776;2023-03-31T02:13:08;18.07;;;9.47;;
21825;SDS011;11075;47.944;11.776;2023-03-31T02:15:41;17.37;;;11.03;;
21825;SDS011;11075;47.944;11.776;2023-03-31T02:18:13;14.33;;;9.93;;
21825;SDS011;11075;47.944;11.776;2023-03-31T02:20:45;15.97;;;10.37;;
21825;SDS011;11075;47.944;11.776;2023-03-31T02:23:14;17.50;;;10.23;;
21825;SDS011;11075;47.944;11.776;2023-03-31T02:25:48;14.33;;;9.40;;
21825;SDS011;11075;47.944;11.776;2023-03-31T02:28:19;14.60;;;9.43;;
21825;SDS011;11075;47.944;11.776;2023-03-31T02:33:45;13.93;;;9.00;;
21825;SDS011;11075;47.944;11.776;2023-03-31T02:36:13;16.17;;;9.73;;
21825;SDS011;11075;47.944;11.776;2023-03-31T02:38:49;20.30;;;9.87;;
21825;SDS011;11075;47.944;11.776;2023-03-31T02:41:20;13.13;;;7.10;;
21825;SDS011;11075;47.944;11.776;2023-03-31T02:43:48;15.53;;;9.93;;
21825;SDS011;11075;47.944;11.776;2023-03-31T02:46:15;18.10;;;9.13;;
21825;SDS011;11075;47.944;11.776;2023-03-31T02:48:46;16.73;;;9.50;;
21825;SDS011;11075;47.944;11.776;2023-03-31T03:00:02;21.57;;;9.63;;
21825;SDS011;11075;47.944;11.776;2023-03-31T03:13:47;17.50;;;10.37;;
21825;SDS011;11075;47.944;11.776;2023-03-31T03:16:25;17.13;;;8.97;;
21825;SDS011;11075;47.944;11.776;2023-03-31T03:18:59;17.30;;;10.77;;
21825;SDS011;11075;47.944;11.776;2023-03-31T03:21:28;18.30;;;11.07;;
21825;SDS011;11075;47.944;11.776;2023-03-31T03:23:55;14.13;;;8.90;;
21825;SDS011;11075;47.944;11.776;2023-03-31T03:26:23;22.63;;;9.80;;
21825;SDS011;11075;47.944;11.776;2023-03-31T03:28:54;17.57;;;9.07;;
21825;SDS011;11075;47.944;11.776;2023-03-31T03:31:22;14.90;;;9.27;;
21825;SDS011;11075;47.944;11.776;2023-03-31T03:33:52;14.97;;;9.53;;
21825;SDS011;11075;47.944;11.776;2023-03-31T03:36:19;19.03;;;9.40;;
21825;SDS011;11075;47.944;11.776;2023-03-31T03:38:46;27.40;;;9.73;;
21825;SDS011;11075;47.944;11.776;2023-03-31T03:41:12;17.97;;;10.40;;
21825;SDS011;11075;47.944;11.776;2023-03-31T03:43:39;18.57;;;10.20;;
21825;SDS011;11075;47.944;11.776;2023-03-31T03:46:06;18.80;;;9.77;;
21825;SDS011;11075;47.944;11.776;2023-03-31T03:48:33;15.23;;;9.87;;
21825;SDS011;11075;47.944;11.776;2023-03-31T03:51:00;15.70;;;8.60;;
21825;SDS011;11075;47.944;11.776;2023-03-31T03:53:27;18.77;;;9.37;;
21825;SDS011;11075;47.944;11.776;2023-03-31T03:55:54;20.10;;;10.33;;
21825;SDS011;11075;47.944;11.776;2023-03-31T03:58:21;20.07;;;9.20;;
21825;SDS011;11075;47.944;11.776;2023-03-31T04:00:48;18.73;;;9.50;;
21825;SDS011;11075;47.944;11.776;2023-03-31T04:03:15;17.77;;;9.40;;
21825;SDS011;11075;47.944;11.776;2023-03-31T04:05:42;19.70;;;8.10;;
21825;SDS011;11075;47.944;11.776;2023-03-31T04:08:09;18.97;;;10.00;;
21825;SDS011;11075;47.944;11.776;2023-03-31T04:10:36;18.57;;;9.80;;
21825;SDS011;11075;47.944;11.776;2023-03-31T04:13:03;19.37;;;10.73;;
21825;SDS011;11075;47.944;11.776;2023-03-31T04:15:30;17.10;;;8.53;;
21825;SDS011;11075;47.944;11.776;2023-03-31T04:17:56;15.17;;;8.87;;
21825;SDS011;11075;47.944;11.776;2023-03-31T04:20:24;16.07;;;8.13;;
21825;SDS011;11075;47.944;11.776;2023-03-31T04:22:57;14.63;;;8.37;;
21825;SDS011;11075;47.944;11.776;2023-03-31T04:25:24;15.30;;;8.63;;
21825;SDS011;11075;47.944;11.776;2023-03-31T04:27:51;16.93;;;8.30;;
21825;SDS011;11075;47.944;11.776;2023-03-31T04:30:21;12.73;;;7.93;;
21825;SDS011;11075;47.944;11.776;2023-03-31T04:32:51;13.10;;;8.10;;
21825;SDS011;11075;47.944;11.776;2023-03-31T04:35:21;15.37;;;8.17;;
21825;SDS011;11075;47.944;11.776;2023-03-31T04:37:50;16.33;;;7.80;;
21825;SDS011;11075;47.944;11.776;2023-03-31T04:40:24;14.40;;;8.03;;
21825;SDS011;11075;47.944;11.776;2023-03-31T04:42:51;15.07;;;7.83;;
21825;SDS011;11075;47.944;11.776;2023-03-31T04:45:18;14.40;;;7.50;;
21825;SDS011;11075;47.944;11.776;2023-03-31T04:47:45;16.30;;;7.23;;
21825;SDS011;11075;47.944;11.776;2023-03-31T04:50:12;16.60;;;7.73;;
21825;SDS011;11075;47.944;11.776;2023-03-31T04:52:42;10.30;;;7.37;;
21825;SDS011;11075;47.944;11.776;2023-03-31T04:55:10;8.70;;;6.57;;
21825;SDS011;11075;47.944;11.776;2023-03-31T04:57:36;9.53;;;7.00;;
21825;SDS011;11075;47.944;11.776;2023-03-31T05:00:03;13.50;;;7.80;;
21825;SDS011;11075;47.944;11.776;2023-03-31T05:02:33;13.97;;;7.77;;
21825;SDS011;11075;47.944;11.776;2023-03-31T05:05:00;12.70;;;7.20;;
21825;SDS011;11075;47.944;11.776;2023-03-31T05:07:27;13.90;;;7.47;;
21825;SDS011;11075;47.944;11.776;2023-03-31T05:09:54;14.20;;;7.60;;
21825;SDS011;11075;47.944;11.776;2023-03-31T05:12:21;16.60;;;9.13;;
21825;SDS011;11075;47.944;11.776;2023-03-31T05:14:48;12.00;;;7.77;;
21825;SDS011;11075;47.944;11.776;2023-03-31T05:17:15;13.80;;;7.53;;
21825;SDS011;11075;47.944;11.776;2023-03-31T05:19:43;12.93;;;8.17;;
21825;SDS011;11075;47.944;11.776;2023-03-31T05:22:10;12.33;;;8.30;;
21825;SDS011;11075;47.944;11.776;2023-03-31T05:24:37;13.50;;;8.47;;
21825;SDS011;11075;47.944;11.776;2023-03-31T05:27:04;13.77;;;7.40;;
21825;SDS011;11075;47.944;11.776;2023-03-31T05:29:31;15.23;;;8.57;;
21825;SDS011;11075;47.944;11.776;2023-03-31T05:31:58;14.13;;;8.40;;
21825;SDS011;11075;47.944;11.776;2023-03-31T05:34:25;14.20;;;8.67;;
21825;SDS011;11075;47.944;11.776;2023-03-31T05:36:52;18.47;;;8.10;;
21825;SDS011;11075;47.944;11.776;2023-03-31T05:39:19;18.20;;;9.70;;
21825;SDS011;11075;47.944;11.776;2023-03-31T05:41:46;15.90;;;8.37;;
21825;SDS011;11075;47.944;11.776;2023-03-31T05:44:13;11.03;;;8.20;;
21825;SDS011;11075;47.944;11.776;2023-03-31T05:46:41;17.17;;;8.83;;
21825;SDS011;11075;47.944;11.776;2023-03-31T05:49:08;15.50;;;8.27;;
21825;SDS011;11075;47.944;11.776;2023-03-31T05:51:36;15.50;;;8.63;;
21825;SDS011;11075;47.944;11.776;2023-03-31T05:54:03;16.80;;;8.60;;
21825;SDS011;11075;47.944;11.776;2023-03-31T05:56:32;19.20;;;8.30;;
21825;SDS011;11075;47.944;11.776;2023-03-31T05:58:59;16.23;;;9.17;;
21825;SDS011;11075;47.944;11.776;2023-03-31T06:01:26;16.27;;;9.70;;
21825;SDS011;11075;47.944;11.776;2023-03-31T06:03:55;25.73;;;10.40;;
21825;SDS011;11075;47.944;11.776;2023-03-31T06:06:23;21.20;;;9.70;;
21825;SDS011;11075;47.944;11.776;2023-03-31T06:08:50;19.50;;;11.07;;
21825;SDS011;11075;47.944;11.776;2023-03-31T06:11:19;22.20;;;10.73;;
21825;SDS011;11075;47.944;11.776;2023-03-31T06:13:47;18.83;;;10.47;;
21825;SDS011;11075;47.944;11.776;2023-03-31T06:16:15;21.53;;;11.50;;
21825;SDS011;11075;47.944;11.776;2023-03-31T06:18:43;22.30;;;10.83;;
21825;SDS011;11075;47.944;11.776;2023-03-31T06:21:11;19.50;;;11.03;;
21825;SDS011;11075;47.944;11.776;2023-03-31T06:23:42;19.23;;;10.07;;
21825;SDS011;11075;47.944;11.776;2023-03-31T06:26:16;13.10;;;8.10;;
21825;SDS011;11075;47.944;11.776;2023-03-31T06:28:44;16.67;;;8.60;;
21825;SDS011;11075;47.944;11.776;2023-03-31T06:31:12;13.73;;;6.73;;
21825;SDS011;11075;47.944;11.776;2023-03-31T06:33:41;13.47;;;6.63;;
21825;SDS011;11075;47.944;11.776;2023-03-31T06:36:10;9.77;;;7.00;;
21825;SDS011;11075;47.944;11.776;2023-03-31T06:38:39;8.33;;;5.93;;
21825;SDS011;11075;47.944;11.776;2023-03-31T06:41:07;10.90;;;7.00;;
21825;SDS011;11075;47.944;11.776;2023-03-31T06:43:37;12.17;;;6.17;;
21825;SDS011;11075;47.944;11.776;2023-03-31T06:46:04;12.03;;;6.67;;
21825;SDS011;11075;47.944;11.776;2023-03-31T06:48:31;10.13;;;6.03;;
21825;SDS011;11075;47.944;11.776;2023-03-31T06:51:00;9.07;;;5.87;;
21825;SDS011;11075;47.944;11.776;2023-03-31T06:53:27;15.17;;;6.93;;
21825;SDS011;11075;47.944;11.776;2023-03-31T06:55:55;10.17;;;5.77;;
21825;SDS011;11075;47.944;11.776;2023-03-31T06:58:22;9.03;;;5.50;;
21825;SDS011;11075;47.944;11.776;2023-03-31T07:00:49;8.07;;;5.40;;
21825;SDS011;11075;47.944;11.776;2023-03-31T07:03:16;11.47;;;5.10;;
21825;SDS011;11075;47.944;11.776;2023-03-31T07:05:51;9.80;;;5.40;;
21825;SDS011;11075;47.944;11.776;2023-03-31T07:08:18;6.23;;;4.27;;
21825;SDS011;11075;47.944;11.776;2023-03-31T07:10:47;7.97;;;5.10;;
21825;SDS011;11075;47.944;11.776;2023-03-31T07:13:15;11.77;;;5.13;;
21825;SDS011;11075;47.944;11.776;2023-03-31T07:15:46;9.53;;;5.37;;
21825;SDS011;11075;47.944;11.776;2023-03-31T07:18:15;8.43;;;4.63;;
21825;SDS011;11075;47.944;11.776;2023-03-31T07:20:43;10.17;;;5.13;;
21825;SDS011;11075;47.944;11.776;2023-03-31T07:23:10;8.40;;;4.90;;
21825;SDS011;11075;47.944;11.776;2023-03-31T07:25:37;9.90;;;5.90;;
21825;SDS011;11075;47.944;11.776;2023-03-31T07:28:04;8.17;;;5.40;;
21825;SDS011;11075;47.944;11.776;2023-03-31T07:30:32;9.30;;;5.80;;
21825;SDS011;11075;47.944;11.776;2023-03-31T07:33:00;11.27;;;5.80;;
21825;SDS011;11075;47.944;11.776;2023-03-31T07:35:27;14.17;;;5.83;;
21825;SDS011;11075;47.944;11.776;2023-03-31T07:37:56;9.53;;;5.27;;
21825;SDS011;11075;47.944;11.776;2023-03-31T07:40:25;11.23;;;5.87;;
21825;SDS011;11075;47.944;11.776;2023-03-31T07:42:54;10.43;;;6.33;;
21825;SDS011;11075;47.944;11.776;2023-03-31T07:45:23;8.47;;;5.83;;
21825;SDS011;11075;47.944;11.776;2023-03-31T07:47:51;10.63;;;6.40;;
21825;SDS011;11075;47.944;11.776;2023-03-31T07:50:18;10.73;;;6.00;;
21825;SDS011;11075;47.944;11.776;2023-03-31T07:52:48;13.67;;;6.57;;
21825;SDS011;11075;47.944;11.776;2023-03-31T07:55:16;10.77;;;6.70;;
21825;SDS011;11075;47.944;11.776;2023-03-31T07:57:45;11.30;;;6.63;;
21825;SDS011;11075;47.944;11.776;2023-03-31T08:00:14;10.23;;;6.90;;
21825;SDS011;11075;47.944;11.776;2023-03-31T08:02:41;16.30;;;6.53;;
21825;SDS011;11075;47.944;11.776;2023-03-31T08:05:10;12.63;;;6.60;;
21825;SDS011;11075;47.944;11.776;2023-03-31T08:07:40;15.17;;;9.10;;
21825;SDS011;11075;47.944;11.776;2023-03-31T08:10:10;10.13;;;7.33;;
21825;SDS011;11075;47.944;11.776;2023-03-31T08:12:39;10.77;;;6.73;;
21825;SDS011;11075;47.944;11.776;2023-03-31T08:15:06;17.40;;;8.43;;
21825;SDS011;11075;47.944;11.776;2023-03-31T08:17:34;11.23;;;6.33;;
21825;SDS011;11075;47.944;11.776;2023-03-31T08:20:02;9.20;;;6.30;;
21825;SDS011;11075;47.944;11.776;2023-03-31T08:22:33;9.83;;;6.07;;
21825;SDS011;11075;47.944;11.776;2023-03-31T08:25:01;12.17;;;7.90;;
21825;SDS011;11075;47.944;11.776;2023-03-31T08:27:31;12.10;;;7.10;;
21825;SDS011;11075;47.944;11.776;2023-03-31T08:29:59;14.97;;;9.73;;
21825;SDS011;11075;47.944;11.776;2023-03-31T08:32:30;13.87;;;9.60;;
21825;SDS011;11075;47.944;11.776;2023-03-31T08:34:58;11.70;;;7.23;;
21825;SDS011;11075;47.944;11.776;2023-03-31T08:37:26;7.33;;;5.67;;
21825;SDS011;11075;47.944;11.776;2023-03-31T08:39:57;9.50;;;6.30;;
21825;SDS011;11075;47.944;11.776;2023-03-31T08:47:42;8.93;;;6.20;;
21825;SDS011;11075;47.944;11.776;2023-03-31T08:50:15;10.90;;;7.27;;
21825;SDS011;11075;47.944;11.776;2023-03-31T08:52:50;9.87;;;7.10;;
21825;SDS011;11075;47.944;11.776;2023-03-31T08:55:24;8.60;;;6.97;;
21825;SDS011;11075;47.944;11.776;2023-03-31T09:00:33;10.83;;;6.63;;
21825;SDS011;11075;47.944;11.776;2023-03-31T09:03:17;8.57;;;5.83;;
21825;SDS011;11075;47.944;11.776;2023-03-31T09:05:50;10.20;;;6.50;;
21825;SDS011;11075;47.944;11.776;2023-03-31T09:08:37;10.23;;;4.90;;
21825;SDS011;11075;47.944;11.776;2023-03-31T09:11:14;11.87;;;5.00;;
21825;SDS011;11075;47.944;11.776;2023-03-31T09:19:48;7.07;;;4.17;;
21825;SDS011;11075;47.944;11.776;2023-03-31T09:22:22;5.47;;;4.07;;
21825;SDS011;11075;47.944;11.776;2023-03-31T09:27:31;6.10;;;3.73;;
21825;SDS011;11075;47.944;11.776;2023-03-31T09:30:04;7.47;;;4.10;;
21825;SDS011;11075;47.944;11.776;2023-03-31T09:32:41;5.03;;;3.60;;
21825;SDS011;11075;47.944;11.776;2023-03-31T09:35:15;6.63;;;3.63;;
21825;SDS011;11075;47.944;11.776;2023-03-31T09:37:43;5.03;;;4.03;;
21825;SDS011;11075;47.944;11.776;2023-03-31T09:40:14;8.02;;;4.28;;
21825;SDS011;11075;47.944;11.776;2023-03-31T09:42:44;5.97;;;3.75;;
21825;SDS011;11075;47.944;11.776;2023-03-31T09:45:16;5.63;;;3.63;;
21825;SDS011;11075;47.944;11.776;2023-03-31T09:47:46;6.22;;;3.88;;
21825;SDS011;11075;47.944;11.776;2023-03-31T09:50:17;6.90;;;3.50;;
21825;SDS011;11075;47.944;11.776;2023-03-31T09:52:51;7.40;;;4.15;;
21825;SDS011;11075;47.944;11.776;2023-03-31T09:55:33;5.75;;;3.33;;
21825;SDS011;11075;47.944;11.776;2023-03-31T09:58:13;6.40;;;3.15;;
21825;SDS011;11075;47.944;11.776;2023-03-31T10:00:42;5.13;;;3.70;;
21825;SDS011;11075;47.944;11.776;2023-03-31T10:03:27;3.97;;;3.28;;
21825;SDS011;11075;47.944;11.776;2023-03-31T10:05:56;6.35;;;3.22;;
21825;SDS011;11075;47.944;11.776;2023-03-31T10:08:31;9.27;;;3.72;;
21825;SDS011;11075;47.944;11.776;2023-03-31T10:14:15;7.73;;;3.87;;
21825;SDS011;11075;47.944;11.776;2023-03-31T10:18:55;5.35;;;3.30;;
21825;SDS011;11075;47.944;11.776;2023-03-31T10:24:24;4.57;;;3.07;;
21825;SDS011;11075;47.944;11.776;2023-03-31T10:26:53;9.60;;;3.90;;
21825;SDS011;11075;47.944;11.776;2023-03-31T10:29:26;4.97;;;3.53;;
21825;SDS011;11075;47.944;11.776;2023-03-31T10:32:13;6.20;;;3.63;;
21825;SDS011;11075;47.944;11.776;2023-03-31T10:34:48;3.83;;;3.35;;
21825;SDS011;11075;47.944;11.776;2023-03-31T10:37:16;7.25;;;3.47;;
21825;SDS011;11075;47.944;11.776;2023-03-31T10:39:45;5.68;;;3.13;;
21825;SDS011;11075;47.944;11.776;2023-03-31T10:42:22;5.03;;;3.45;;
21825;SDS011;11075;47.944;11.776;2023-03-31T10:44:50;6.72;;;3.40;;
21825;SDS011;11075;47.944;11.776;2023-03-31T10:48:04;5.82;;;3.40;;
21825;SDS011;11075;47.944;11.776;2023-03-31T10:50:42;6.10;;;3.80;;
21825;SDS011;11075;47.944;11.776;2023-03-31T10:53:11;6.18;;;3.83;;
21825;SDS011;11075;47.944;11.776;2023-03-31T11:15:05;5.50;;;4.00;;
21825;SDS011;11075;47.944;11.776;2023-03-31T11:42:56;6.20;;;3.30;;
21825;SDS011;11075;47.944;11.776;2023-03-31T11:45:31;6.27;;;3.13;;
21825;SDS011;11075;47.944;11.776;2023-03-31T11:48:02;10.77;;;3.60;;
21825;SDS011;11075;47.944;11.776;2023-03-31T11:50:35;4.77;;;2.90;;
21825;SDS011;11075;47.944;11.776;2023-03-31T11:53:06;4.17;;;3.03;;
21825;SDS011;11075;47.944;11.776;2023-03-31T11:55:42;4.93;;;3.50;;
21825;SDS011;11075;47.944;11.776;2023-03-31T11:58:17;6.00;;;2.70;;
21825;SDS011;11075;47.944;11.776;2023-03-31T12:00:54;5.47;;;3.10;;
21825;SDS011;11075;47.944;11.776;2023-03-31T12:04:32;6.43;;;2.90;;
21825;SDS011;11075;47.944;11.776;2023-03-31T12:06:40;4.47;;;2.30;;
21825;SDS011;11075;47.944;11.776;2023-03-31T12:12:13;3.73;;;2.70;;
21825;SDS011;11075;47.944;11.776;2023-03-31T12:15:05;3.20;;;2.53;;
21825;SDS011;11075;47.944;11.776;2023-03-31T12:17:56;5.80;;;2.60;;
21825;SDS011;11075;47.944;11.776;2023-03-31T12:20:32;3.30;;;2.50;;
21825;SDS011;11075;47.944;11.776;2023-03-31T12:23:07;4.50;;;2.63;;
21825;SDS011;11075;47.944;11.776;2023-03-31T12:25:51;5.57;;;3.27;;
21825;SDS011;11075;47.944;11.776;2023-03-31T12:28:29;10.70;;;3.00;;
21825;SDS011;11075;47.944;11.776;2023-03-31T12:31:00;4.83;;;2.90;;
21825;SDS011;11075;47.944;11.776;2023-03-31T12:33:35;3.57;;;2.83;;
21825;SDS011;11075;47.944;11.776;2023-03-31T12:39:27;3.33;;;2.70;;
21825;SDS011;11075;47.944;11.776;2023-03-31T12:44:36;5.20;;;3.67;;
21825;SDS011;11075;47.944;11.776;2023-03-31T12:55:41;4.87;;;2.43;;
21825;SDS011;11075;47.944;11.776;2023-03-31T13:04:20;4.90;;;2.67;;
21825;SDS011;11075;47.944;11.776;2023-03-31T13:06:45;5.97;;;2.93;;
21825;SDS011;11075;47.944;11.776;2023-03-31T13:09:38;4.87;;;2.50;;
21825;SDS011;11075;47.944;11.776;2023-03-31T13:12:07;5.23;;;3.00;;
21825;SDS011;11075;47.944;11.776;2023-03-31T13:14:46;4.27;;;2.53;;
21825;SDS011;11075;47.944;11.776;2023-03-31T13:17:19;5.27;;;2.27;;
21825;SDS011;11075;47.944;11.776;2023-03-31T13:19:53;4.30;;;2.03;;
21825;SDS011;11075;47.944;11.776;2023-03-31T13:22:34;1.90;;;1.00;;
21825;SDS011;11075;47.944;11.776;2023-03-31T13:27:55;1.73;;;0.90;;
21825;SDS011;11075;47.944;11.776;2023-03-31T13:35:37;5.30;;;1.50;;
21825;SDS011;11075;47.944;11.776;2023-03-31T13:41:00;2.07;;;0.80;;
21825;SDS011;11075;47.944;11.776;2023-03-31T13:43:37;1.43;;;1.00;;
21825;SDS011;11075;47.944;11.776;2023-03-31T14:07:37;6.53;;;2.93;;
21825;SDS011;11075;47.944;11.776;2023-03-31T14:12:51;2.33;;;1.37;;
21825;SDS011;11075;47.944;11.776;2023-03-31T14:15:19;5.20;;;2.00;;
21825;SDS011;11075;47.944;11.776;2023-03-31T14:17:46;3.23;;;1.40;;
21825;SDS011;11075;47.944;11.776;2023-03-31T14:20:22;2.90;;;1.10;;
21825;SDS011;11075;47.944;11.776;2023-03-31T14:39:29;2.38;;;1.33;;
21825;SDS011;11075;47.944;11.776;2023-03-31T14:42:09;2.60;;;1.33;;
21825;SDS011;11075;47.944;11.776;2023-03-31T14:44:39;4.45;;;1.30;;
21825;SDS011;11075;47.944;11.776;2023-03-31T14:47:21;6.40;;;1.75;;
21825;SDS011;11075;47.944;11.776;2023-03-31T14:52:47;2.23;;;0.90;;
21825;SDS011;11075;47.944;11.776;2023-03-31T14:55:21;2.00;;;1.37;;
21825;SDS011;11075;47.944;11.776;2023-03-31T14:57:53;2.13;;;0.90;;
21825;SDS011;11075;47.944;11.776;2023-03-31T15:00:25;2.27;;;0.60;;
21825;SDS011;11075;47.944;11.776;2023-03-31T15:02:55;0.80;;;0.40;;
21825;SDS011;11075;47.944;11.776;2023-03-31T15:05:27;1.00;;;0.40;;
21825;SDS011;11075;47.944;11.776;2023-03-31T15:08:03;2.45;;;0.30;;
21825;SDS011;11075;47.944;11.776;2023-03-31T15:10:38;0.70;;;0.50;;
21825;SDS011;11075;47.944;11.776;2023-03-31T15:13:08;1.95;;;0.40;;
21825;SDS011;11075;47.944;11.776;2023-03-31T15:15:38;0.40;;;0.40;;
21825;SDS011;11075;47.944;11.776;2023-03-31T15:18:05;1.33;;;0.30;;
21825;SDS011;11075;47.944;11.776;2023-03-31T15:20:36;0.70;;;0.60;;
21825;SDS011;11075;47.944;11.776;2023-03-31T15:23:23;0.75;;;0.40;;
21825;SDS011;11075;47.944;11.776;2023-03-31T15:25:57;0.90;;;0.40;;
21825;SDS011;11075;47.944;11.776;2023-03-31T15:28:28;1.00;;;0.30;;
21825;SDS011;11075;47.944;11.776;2023-03-31T15:31:02;4.03;;;0.60;;
21825;SDS011;11075;47.944;11.776;2023-03-31T15:33:35;0.40;;;0.23;;
21825;SDS011;11075;47.944;11.776;2023-03-31T15:36:07;1.13;;;0.50;;
21825;SDS011;11075;47.944;11.776;2023-03-31T15:38:37;0.40;;;0.30;;
21825;SDS011;11075;47.944;11.776;2023-03-31T15:41:11;0.60;;;0.50;;
21825;SDS011;11075;47.944;11.776;2023-03-31T15:46:18;0.47;;;0.30;;
21825;SDS011;11075;47.944;11.776;2023-03-31T15:49:19;1.67;;;0.60;;
21825;SDS011;11075;47.944;11.776;2023-03-31T15:51:48;1.17;;;0.60;;
21825;SDS011;11075;47.944;11.776;2023-03-31T15:54:39;1.77;;;0.50;;
21825;SDS011;11075;47.944;11.776;2023-03-31T15:57:07;1.17;;;0.50;;
21825;SDS011;11075;47.944;11.776;2023-03-31T15:59:56;1.70;;;0.50;;
21825;SDS011;11075;47.944;11.776;2023-03-31T16:02:24;4.20;;;0.80;;
21825;SDS011;11075;47.944;11.776;2023-03-31T16:04:53;1.83;;;1.03;;
21825;SDS011;11075;47.944;11.776;2023-03-31T16:07:26;0.47;;;0.43;;
21825;SDS011;11075;47.944;11.776;2023-03-31T16:10:04;0.70;;;0.57;;
21825;SDS011;11075;47.944;11.776;2023-03-31T16:15:07;2.90;;;1.10;;
21825;SDS011;11075;47.944;11.776;2023-03-31T16:17:46;1.47;;;0.60;;
21825;SDS011;11075;47.944;11.776;2023-03-31T16:20:25;1.80;;;0.70;;
21825;SDS011;11075;47.944;11.776;2023-03-31T16:22:55;2.07;;;0.90;;
21825;SDS011;11075;47.944;11.776;2023-03-31T16:25:28;4.67;;;0.83;;
21825;SDS011;11075;47.944;11.776;2023-03-31T16:27:57;2.13;;;0.80;;
21825;SDS011;11075;47.944;11.776;2023-03-31T16:30:34;1.80;;;0.70;;
21825;SDS011;11075;47.944;11.776;2023-03-31T16:33:04;2.50;;;0.90;;
21825;SDS011;11075;47.944;11.776;2023-03-31T16:35:40;1.93;;;0.90;;
21825;SDS011;11075;47.944;11.776;2023-03-31T16:38:09;0.90;;;0.70;;
21825;SDS011;11075;47.944;11.776;2023-03-31T16:40:39;1.63;;;0.80;;
21825;SDS011;11075;47.944;11.776;2023-03-31T16:45:42;3.33;;;1.33;;
21825;SDS011;11075;47.944;11.776;2023-03-31T16:48:14;1.97;;;1.40;;
21825;SDS011;11075;47.944;11.776;2023-03-31T16:50:43;2.20;;;1.03;;
21825;SDS011;11075;47.944;11.776;2023-03-31T16:53:15;1.67;;;0.90;;
21825;SDS011;11075;47.944;11.776;2023-03-31T16:55:44;5.80;;;3.33;;
21825;SDS011;11075;47.944;11.776;2023-03-31T16:58:25;3.10;;;1.60;;
21825;SDS011;11075;47.944;11.776;2023-03-31T17:00:54;3.57;;;0.80;;
21825;SDS011;11075;47.944;11.776;2023-03-31T17:03:22;1.27;;;0.80;;
21825;SDS011;11075;47.944;11.776;2023-03-31T17:05:52;1.40;;;0.97;;
21825;SDS011;11075;47.944;11.776;2023-03-31T17:08:25;0.80;;;0.80;;
21825;SDS011;11075;47.944;11.776;2023-03-31T17:10:54;2.00;;;0.60;;
21825;SDS011;11075;47.944;11.776;2023-03-31T17:13:21;1.80;;;0.60;;
21825;SDS011;11075;47.944;11.776;2023-03-31T17:15:48;0.60;;;0.50;;
21825;SDS011;11075;47.944;11.776;2023-03-31T17:18:21;2.07;;;0.60;;
21825;SDS011;11075;47.944;11.776;2023-03-31T17:20:48;7.50;;;0.93;;
21825;SDS011;11075;47.944;11.776;2023-03-31T17:23:15;1.50;;;0.30;;
21825;SDS011;11075;47.944;11.776;2023-03-31T17:25:48;1.60;;;0.40;;
21825;SDS011;11075;47.944;11.776;2023-03-31T17:28:18;2.23;;;0.40;;
21825;SDS011;11075;47.944;11.776;2023-03-31T17:30:45;1.43;;;0.57;;
21825;SDS011;11075;47.944;11.776;2023-03-31T17:33:14;0.47;;;0.33;;
21825;SDS011;11075;47.944;11.776;2023-03-31T17:35:42;0.83;;;0.40;;
21825;SDS011;11075;47.944;11.776;2023-03-31T17:38:09;0.60;;;0.30;;
21825;SDS011;11075;47.944;11.776;2023-03-31T17:40:39;0.53;;;0.30;;
21825;SDS011;11075;47.944;11.776;2023-03-31T17:43:06;0.30;;;0.20;;
21825;SDS011;11075;47.944;11.776;2023-03-31T17:45:33;1.20;;;0.30;;
21825;SDS011;11075;47.944;11.776;2023-03-31T17:48:00;0.30;;;0.20;;
21825;SDS011;11075;47.944;11.776;2023-03-31T17:50:27;0.40;;;0.30;;
21825;SDS011;11075;47.944;11.776;2023-03-31T17:52:54;1.80;;;0.30;;
21825;SDS011;11075;47.944;11.776;2023-03-31T17:55:21;0.97;;;0.37;;
21825;SDS011;11075;47.944;11.776;2023-03-31T17:57:49;1.27;;;0.60;;
21825;SDS011;11075;47.944;11.776;2023-03-31T18:00:17;0.63;;;0.50;;
21825;SDS011;11075;47.944;11.776;2023-03-31T18:02:45;0.47;;;0.40;;
21825;SDS011;11075;47.944;11.776;2023-03-31T18:05:12;1.83;;;0.30;;
21825;SDS011;11075;47.944;11.776;2023-03-31T18:07:41;0.77;;;0.30;;
21825;SDS011;11075;47.944;11.776;2023-03-31T18:10:08;0.57;;;0.37;;
21825;SDS011;11075;47.944;11.776;2023-03-31T18:12:35;0.23;;;0.23;;
21825;SDS011;11075;47.944;11.776;2023-03-31T18:15:04;3.60;;;0.40;;
21825;SDS011;11075;47.944;11.776;2023-03-31T18:17:33;0.20;;;0.20;;
21825;SDS011;11075;47.944;11.776;2023-03-31T18:20:00;1.40;;;0.30;;
21825;SDS011;11075;47.944;11.776;2023-03-31T18:22:27;0.77;;;0.33;;
21825;SDS011;11075;47.944;11.776;2023-03-31T18:24:54;1.83;;;0.30;;